sensor_id;sensor_type;location;lat;lon;timestamp;temperature;humidity
2729;DHT22;1372;47.956;7.830;2023-12-20T00:00:41;8.30;99.90
2729;DHT22;1372;47.956;7.830;2023-12-20T00:03:13;8.30;99.90
2729;DHT22;1372;47.956;7.830;2023-12-20T00:05:41;8.20;99.90
2729;DHT22;1372;47.956;7.830;2023-12-20T00:08:17;8.30;99.90
2729;DHT22;1372;47.956;7.830;2023-12-20T00:10:45;8.20;99.90
2729;DHT22;1372;47.956;7.830;2023-12-20T00:13:18;8.20;99.90
2729;DHT22;1372;47.956;7.830;2023-12-20T00:15:47;8.20;99.90
2729;DHT22;1372;47.956;7.830;2023-12-20T00:18:27;8.10;99.90
2729;DHT22;1372;47.956;7.830;2023-12-20T00:20:56;8.20;99.90
2729;DHT22;1372;47.956;7.830;2023-12-20T00:23:24;8.30;99.90
2729;DHT22;1372;47.956;7.830;2023-12-20T00:25:53;8.30;99.90
2729;DHT22;1372;47.956;7.830;2023-12-20T00:28:22;8.30;99.90
2729;DHT22;1372;47.956;7.830;2023-12-20T00:30:54;8.30;99.90
2729;DHT22;1372;47.956;7.830;2023-12-20T00:33:24;8.30;99.90
2729;DHT22;1372;47.956;7.830;2023-12-20T00:35:57;8.30;99.90
2729;DHT22;1372;47.956;7.830;2023-12-20T00:38:30;8.30;99.90
2729;DHT22;1372;47.956;7.830;2023-12-20T00:41:03;8.30;99.90
2729;DHT22;1372;47.956;7.830;2023-12-20T00:43:32;8.40;99.90
2729;DHT22;1372;47.956;7.830;2023-12-20T00:46:01;8.40;99.90
2729;DHT22;1372;47.956;7.830;2023-12-20T00:48:31;8.30;99.90
2729;DHT22;1372;47.956;7.830;2023-12-20T00:51:00;8.20;99.90
2729;DHT22;1372;47.956;7.830;2023-12-20T00:53:31;8.20;99.90
2729;DHT22;1372;47.956;7.830;2023-12-20T00:56:08;8.10;99.90
2729;DHT22;1372;47.956;7.830;2023-12-20T00:58:39;8.00;99.90
2729;DHT22;1372;47.956;7.830;2023-12-20T01:01:17;8.00;99.90
2729;DHT22;1372;47.956;7.830;2023-12-20T01:03:49;8.00;99.90
2729;DHT22;1372;47.956;7.830;2023-12-20T01:06:20;8.00;99.90
2729;DHT22;1372;47.956;7.830;2023-12-20T01:08:49;8.00;99.90
2729;DHT22;1372;47.956;7.830;2023-12-20T01:11:21;7.90;99.90
2729;DHT22;1372;47.956;7.830;2023-12-20T01:13:49;7.90;99.90
2729;DHT22;1372;47.956;7.830;2023-12-20T01:16:18;7.80;99.90
2729;DHT22;1372;47.956;7.830;2023-12-20T01:18:51;7.60;99.90
2729;DHT22;1372;47.956;7.830;2023-12-20T01:21:26;7.70;99.90
2729;DHT22;1372;47.956;7.830;2023-12-20T01:23:55;7.70;99.90
2729;DHT22;1372;47.956;7.830;2023-12-20T01:26:29;7.80;99.90
2729;DHT22;1372;47.956;7.830;2023-12-20T01:29:03;7.70;99.90
2729;DHT22;1372;47.956;7.830;2023-12-20T01:31:34;7.60;99.90
2729;DHT22;1372;47.956;7.830;2023-12-20T01:34:08;7.60;99.90
2729;DHT22;1372;47.956;7.830;2023-12-20T01:36:37;7.60;99.90
2729;DHT22;1372;47.956;7.830;2023-12-20T01:39:05;7.70;99.90
2729;DHT22;1372;47.956;7.830;2023-12-20T01:41:42;7.60;99.90
2729;DHT22;1372;47.956;7.830;2023-12-20T01:44:16;7.60;99.90
2729;DHT22;1372;47.956;7.830;2023-12-20T01:46:45;7.70;99.90
2729;DHT22;1372;47.956;7.830;2023-12-20T01:49:18;7.70;99.90
2729;DHT22;1372;47.956;7.830;2023-12-20T01:51:48;7.70;99.90
2729;DHT22;1372;47.956;7.830;2023-12-20T01:54:17;7.70;99.90
2729;DHT22;1372;47.956;7.830;2023-12-20T01:56:49;7.60;99.90
2729;DHT22;1372;47.956;7.830;2023-12-20T01:59:24;7.50;99.90
2729;DHT22;1372;47.956;7.830;2023-12-20T02:01:53;7.60;99.90
2729;DHT22;1372;47.956;7.830;2023-12-20T02:04:25;7.60;99.90
2729;DHT22;1372;47.956;7.830;2023-12-20T02:06:57;7.60;99.90
2729;DHT22;1372;47.956;7.830;2023-12-20T02:09:30;7.60;99.90
2729;DHT22;1372;47.956;7.830;2023-12-20T02:12:03;7.50;99.90
2729;DHT22;1372;47.956;7.830;2023-12-20T02:14:39;7.50;99.90
2729;DHT22;1372;47.956;7.830;2023-12-20T02:17:08;7.40;99.90
2729;DHT22;1372;47.956;7.830;2023-12-20T02:19:48;7.40;99.90
2729;DHT22;1372;47.956;7.830;2023-12-20T02:22:23;7.40;99.90
2729;DHT22;1372;47.956;7.830;2023-12-20T02:24:56;7.40;99.90
2729;DHT22;1372;47.956;7.830;2023-12-20T02:27:24;7.40;99.90
2729;DHT22;1372;47.956;7.830;2023-12-20T02:29:53;7.50;99.90
2729;DHT22;1372;47.956;7.830;2023-12-20T02:32:27;7.50;99.90
2729;DHT22;1372;47.956;7.830;2023-12-20T02:34:58;7.40;99.90
2729;DHT22;1372;47.956;7.830;2023-12-20T02:37:28;7.40;99.90
2729;DHT22;1372;47.956;7.830;2023-12-20T02:40:00;7.40;99.90
2729;DHT22;1372;47.956;7.830;2023-12-20T02:42:31;7.40;99.90
2729;DHT22;1372;47.956;7.830;2023-12-20T02:45:00;7.40;99.90
2729;DHT22;1372;47.956;7.830;2023-12-20T02:47:29;7.30;99.90
2729;DHT22;1372;47.956;7.830;2023-12-20T02:49:58;7.40;99.90
2729;DHT22;1372;47.956;7.830;2023-12-20T02:52:31;7.30;99.90
2729;DHT22;1372;47.956;7.830;2023-12-20T02:55:00;7.20;99.90
2729;DHT22;1372;47.956;7.830;2023-12-20T02:57:30;7.30;99.90
2729;DHT22;1372;47.956;7.830;2023-12-20T03:00:00;7.40;99.90
2729;DHT22;1372;47.956;7.830;2023-12-20T03:02:29;7.40;99.90
2729;DHT22;1372;47.956;7.830;2023-12-20T03:04:58;7.40;99.90
2729;DHT22;1372;47.956;7.830;2023-12-20T03:07:30;7.40;99.90
2729;DHT22;1372;47.956;7.830;2023-12-20T03:09:59;7.30;99.90
2729;DHT22;1372;47.956;7.830;2023-12-20T03:12:37;7.20;99.90
2729;DHT22;1372;47.956;7.830;2023-12-20T03:15:07;7.30;99.90
2729;DHT22;1372;47.956;7.830;2023-12-20T03:17:36;7.30;99.90
2729;DHT22;1372;47.956;7.830;2023-12-20T03:20:07;7.20;99.90
2729;DHT22;1372;47.956;7.830;2023-12-20T03:22:38;7.20;99.90
2729;DHT22;1372;47.956;7.830;2023-12-20T03:25:07;7.30;99.90
2729;DHT22;1372;47.956;7.830;2023-12-20T03:27:37;7.20;99.90
2729;DHT22;1372;47.956;7.830;2023-12-20T03:30:07;7.20;99.90
2729;DHT22;1372;47.956;7.830;2023-12-20T03:32:38;7.20;99.90
2729;DHT22;1372;47.956;7.830;2023-12-20T03:35:06;7.30;99.90
2729;DHT22;1372;47.956;7.830;2023-12-20T03:37:35;7.30;99.90
2729;DHT22;1372;47.956;7.830;2023-12-20T03:40:08;7.30;99.90
2729;DHT22;1372;47.956;7.830;2023-12-20T03:42:40;7.30;99.90
2729;DHT22;1372;47.956;7.830;2023-12-20T03:45:09;7.30;99.90
2729;DHT22;1372;47.956;7.830;2023-12-20T03:47:38;7.40;99.90
2729;DHT22;1372;47.956;7.830;2023-12-20T03:50:07;7.30;99.90
2729;DHT22;1372;47.956;7.830;2023-12-20T03:52:36;7.30;99.90
2729;DHT22;1372;47.956;7.830;2023-12-20T03:55:07;7.30;99.90
2729;DHT22;1372;47.956;7.830;2023-12-20T03:57:39;7.30;99.90
2729;DHT22;1372;47.956;7.830;2023-12-20T04:00:12;7.30;99.90
2729;DHT22;1372;47.956;7.830;2023-12-20T04:02:42;7.30;99.90
2729;DHT22;1372;47.956;7.830;2023-12-20T04:05:14;7.20;99.90
2729;DHT22;1372;47.956;7.830;2023-12-20T04:07:42;7.30;99.90
2729;DHT22;1372;47.956;7.830;2023-12-20T04:10:15;7.30;99.90
2729;DHT22;1372;47.956;7.830;2023-12-20T04:12:48;7.30;99.90
2729;DHT22;1372;47.956;7.830;2023-12-20T04:15:17;7.30;99.90
2729;DHT22;1372;47.956;7.830;2023-12-20T04:17:45;7.30;99.90
2729;DHT22;1372;47.956;7.830;2023-12-20T04:20:14;7.30;99.90
2729;DHT22;1372;47.956;7.830;2023-12-20T04:22:43;7.20;99.90
2729;DHT22;1372;47.956;7.830;2023-12-20T04:25:12;7.20;99.90
2729;DHT22;1372;47.956;7.830;2023-12-20T04:27:42;7.20;99.90
2729;DHT22;1372;47.956;7.830;2023-12-20T04:30:13;7.30;99.90
2729;DHT22;1372;47.956;7.830;2023-12-20T04:32:42;7.20;99.90
2729;DHT22;1372;47.956;7.830;2023-12-20T04:35:17;7.20;99.90
2729;DHT22;1372;47.956;7.830;2023-12-20T04:37:48;7.20;99.90
2729;DHT22;1372;47.956;7.830;2023-12-20T04:40:17;7.20;99.90
2729;DHT22;1372;47.956;7.830;2023-12-20T04:42:48;7.20;99.90
2729;DHT22;1372;47.956;7.830;2023-12-20T04:45:18;7.10;99.90
2729;DHT22;1372;47.956;7.830;2023-12-20T04:47:50;7.10;99.90
2729;DHT22;1372;47.956;7.830;2023-12-20T04:50:19;7.10;99.90
2729;DHT22;1372;47.956;7.830;2023-12-20T04:52:50;7.20;99.90
2729;DHT22;1372;47.956;7.830;2023-12-20T04:55:19;7.20;99.90
2729;DHT22;1372;47.956;7.830;2023-12-20T04:57:52;7.20;99.90
2729;DHT22;1372;47.956;7.830;2023-12-20T05:00:21;7.20;99.90
2729;DHT22;1372;47.956;7.830;2023-12-20T05:02:50;7.20;99.90
2729;DHT22;1372;47.956;7.830;2023-12-20T05:05:20;7.30;99.90
2729;DHT22;1372;47.956;7.830;2023-12-20T05:07:49;7.30;99.90
2729;DHT22;1372;47.956;7.830;2023-12-20T05:10:18;7.30;99.90
2729;DHT22;1372;47.956;7.830;2023-12-20T05:12:59;7.30;99.90
2729;DHT22;1372;47.956;7.830;2023-12-20T05:15:27;7.30;99.90
2729;DHT22;1372;47.956;7.830;2023-12-20T05:17:56;7.30;99.90
2729;DHT22;1372;47.956;7.830;2023-12-20T05:20:28;7.30;99.90
2729;DHT22;1372;47.956;7.830;2023-12-20T05:22:56;7.20;99.90
2729;DHT22;1372;47.956;7.830;2023-12-20T05:25:26;7.20;99.90
2729;DHT22;1372;47.956;7.830;2023-12-20T05:27:55;7.20;99.90
2729;DHT22;1372;47.956;7.830;2023-12-20T05:30:25;7.30;99.90
2729;DHT22;1372;47.956;7.830;2023-12-20T05:32:56;7.30;99.90
2729;DHT22;1372;47.956;7.830;2023-12-20T05:35:26;7.30;99.90
2729;DHT22;1372;47.956;7.830;2023-12-20T05:37:55;7.30;99.90
2729;DHT22;1372;47.956;7.830;2023-12-20T05:40:26;7.20;99.90
2729;DHT22;1372;47.956;7.830;2023-12-20T05:42:55;7.20;99.90
2729;DHT22;1372;47.956;7.830;2023-12-20T05:45:28;7.20;99.90
2729;DHT22;1372;47.956;7.830;2023-12-20T05:47:56;7.20;99.90
2729;DHT22;1372;47.956;7.830;2023-12-20T05:50:28;7.20;99.90
2729;DHT22;1372;47.956;7.830;2023-12-20T05:52:57;7.20;99.90
2729;DHT22;1372;47.956;7.830;2023-12-20T05:55:26;7.20;99.90
2729;DHT22;1372;47.956;7.830;2023-12-20T05:57:55;7.20;99.90
2729;DHT22;1372;47.956;7.830;2023-12-20T06:00:28;7.10;99.90
2729;DHT22;1372;47.956;7.830;2023-12-20T06:02:59;7.20;99.90
2729;DHT22;1372;47.956;7.830;2023-12-20T06:05:28;7.30;99.90
2729;DHT22;1372;47.956;7.830;2023-12-20T06:07:57;7.30;99.90
2729;DHT22;1372;47.956;7.830;2023-12-20T06:10:28;7.40;99.90
2729;DHT22;1372;47.956;7.830;2023-12-20T06:13:00;7.30;99.90
2729;DHT22;1372;47.956;7.830;2023-12-20T06:15:30;7.30;99.90
2729;DHT22;1372;47.956;7.830;2023-12-20T06:17:59;7.30;99.90
2729;DHT22;1372;47.956;7.830;2023-12-20T06:20:29;7.30;99.90
2729;DHT22;1372;47.956;7.830;2023-12-20T06:22:57;7.20;99.90
2729;DHT22;1372;47.956;7.830;2023-12-20T06:25:28;7.20;99.90
2729;DHT22;1372;47.956;7.830;2023-12-20T06:27:57;7.20;99.90
2729;DHT22;1372;47.956;7.830;2023-12-20T06:30:29;7.20;99.90
2729;DHT22;1372;47.956;7.830;2023-12-20T06:33:00;7.20;99.90
2729;DHT22;1372;47.956;7.830;2023-12-20T06:35:31;7.10;99.90
2729;DHT22;1372;47.956;7.830;2023-12-20T06:38:03;7.10;99.90
2729;DHT22;1372;47.956;7.830;2023-12-20T06:40:32;7.10;99.90
2729;DHT22;1372;47.956;7.830;2023-12-20T06:43:01;7.10;99.90
2729;DHT22;1372;47.956;7.830;2023-12-20T06:45:34;7.10;99.90
2729;DHT22;1372;47.956;7.830;2023-12-20T06:48:03;7.10;99.90
2729;DHT22;1372;47.956;7.830;2023-12-20T06:50:32;7.10;99.90
2729;DHT22;1372;47.956;7.830;2023-12-20T06:53:01;7.10;99.90
2729;DHT22;1372;47.956;7.830;2023-12-20T06:55:34;7.10;99.90
2729;DHT22;1372;47.956;7.830;2023-12-20T06:58:04;7.20;99.90
2729;DHT22;1372;47.956;7.830;2023-12-20T07:00:37;7.20;99.90
2729;DHT22;1372;47.956;7.830;2023-12-20T07:03:06;7.20;99.90
2729;DHT22;1372;47.956;7.830;2023-12-20T07:05:37;7.20;99.90
2729;DHT22;1372;47.956;7.830;2023-12-20T07:08:06;7.20;99.90
2729;DHT22;1372;47.956;7.830;2023-12-20T07:10:36;7.20;99.90
2729;DHT22;1372;47.956;7.830;2023-12-20T07:13:07;7.10;99.90
2729;DHT22;1372;47.956;7.830;2023-12-20T07:15:39;7.10;99.90
2729;DHT22;1372;47.956;7.830;2023-12-20T07:18:11;7.10;99.90
2729;DHT22;1372;47.956;7.830;2023-12-20T07:20:39;7.00;99.90
2729;DHT22;1372;47.956;7.830;2023-12-20T07:23:08;7.00;99.90
2729;DHT22;1372;47.956;7.830;2023-12-20T07:25:37;6.90;99.90
2729;DHT22;1372;47.956;7.830;2023-12-20T07:28:06;7.00;99.90
2729;DHT22;1372;47.956;7.830;2023-12-20T07:30:34;6.90;99.90
2729;DHT22;1372;47.956;7.830;2023-12-20T07:33:05;6.90;99.90
2729;DHT22;1372;47.956;7.830;2023-12-20T07:35:36;6.90;99.90
2729;DHT22;1372;47.956;7.830;2023-12-20T07:38:07;6.90;99.90
2729;DHT22;1372;47.956;7.830;2023-12-20T07:40:36;6.80;99.90
2729;DHT22;1372;47.956;7.830;2023-12-20T07:43:06;6.90;99.90
2729;DHT22;1372;47.956;7.830;2023-12-20T07:45:37;6.90;99.90
2729;DHT22;1372;47.956;7.830;2023-12-20T07:48:08;6.90;99.90
2729;DHT22;1372;47.956;7.830;2023-12-20T07:50:37;7.00;99.90
2729;DHT22;1372;47.956;7.830;2023-12-20T07:53:06;7.00;99.90
2729;DHT22;1372;47.956;7.830;2023-12-20T07:55:34;7.00;99.90
2729;DHT22;1372;47.956;7.830;2023-12-20T07:58:05;7.00;99.90
2729;DHT22;1372;47.956;7.830;2023-12-20T08:00:34;7.00;99.90
2729;DHT22;1372;47.956;7.830;2023-12-20T08:03:03;7.00;99.90
2729;DHT22;1372;47.956;7.830;2023-12-20T08:05:38;7.00;99.90
2729;DHT22;1372;47.956;7.830;2023-12-20T08:08:10;6.90;99.90
2729;DHT22;1372;47.956;7.830;2023-12-20T08:10:41;6.90;99.90
2729;DHT22;1372;47.956;7.830;2023-12-20T08:13:14;7.00;99.90
2729;DHT22;1372;47.956;7.830;2023-12-20T08:15:43;7.00;99.90
2729;DHT22;1372;47.956;7.830;2023-12-20T08:18:12;7.10;99.90
2729;DHT22;1372;47.956;7.830;2023-12-20T08:20:48;7.10;99.90
2729;DHT22;1372;47.956;7.830;2023-12-20T08:23:20;7.10;99.90
2729;DHT22;1372;47.956;7.830;2023-12-20T08:25:55;7.10;99.90
2729;DHT22;1372;47.956;7.830;2023-12-20T08:28:23;7.00;99.90
2729;DHT22;1372;47.956;7.830;2023-12-20T08:30:52;7.00;99.90
2729;DHT22;1372;47.956;7.830;2023-12-20T08:33:21;7.00;99.90
2729;DHT22;1372;47.956;7.830;2023-12-20T08:35:51;7.00;99.90
2729;DHT22;1372;47.956;7.830;2023-12-20T08:38:20;7.00;99.90
2729;DHT22;1372;47.956;7.830;2023-12-20T08:40:51;7.10;99.90
2729;DHT22;1372;47.956;7.830;2023-12-20T08:43:28;7.10;99.90
2729;DHT22;1372;47.956;7.830;2023-12-20T08:45:58;7.00;99.90
2729;DHT22;1372;47.956;7.830;2023-12-20T08:48:29;7.00;99.90
2729;DHT22;1372;47.956;7.830;2023-12-20T08:51:05;7.10;99.90
2729;DHT22;1372;47.956;7.830;2023-12-20T08:53:36;7.10;99.90
2729;DHT22;1372;47.956;7.830;2023-12-20T08:56:07;7.20;99.90
2729;DHT22;1372;47.956;7.830;2023-12-20T08:58:36;7.10;99.90
2729;DHT22;1372;47.956;7.830;2023-12-20T09:01:05;7.10;99.90
2729;DHT22;1372;47.956;7.830;2023-12-20T09:03:34;7.10;99.90
2729;DHT22;1372;47.956;7.830;2023-12-20T09:06:07;7.20;99.90
2729;DHT22;1372;47.956;7.830;2023-12-20T09:08:38;7.20;99.90
2729;DHT22;1372;47.956;7.830;2023-12-20T09:11:10;7.30;99.90
2729;DHT22;1372;47.956;7.830;2023-12-20T09:13:41;7.30;99.90
2729;DHT22;1372;47.956;7.830;2023-12-20T09:16:11;7.30;99.90
2729;DHT22;1372;47.956;7.830;2023-12-20T09:18:42;7.20;99.90
2729;DHT22;1372;47.956;7.830;2023-12-20T09:21:14;7.30;99.90
2729;DHT22;1372;47.956;7.830;2023-12-20T09:23:46;7.20;99.90
2729;DHT22;1372;47.956;7.830;2023-12-20T09:26:18;7.20;99.90
2729;DHT22;1372;47.956;7.830;2023-12-20T09:28:48;7.30;99.90
2729;DHT22;1372;47.956;7.830;2023-12-20T09:31:16;7.40;99.90
2729;DHT22;1372;47.956;7.830;2023-12-20T09:33:48;7.30;99.90
2729;DHT22;1372;47.956;7.830;2023-12-20T09:36:24;7.30;99.90
2729;DHT22;1372;47.956;7.830;2023-12-20T09:38:52;7.30;99.90
2729;DHT22;1372;47.956;7.830;2023-12-20T09:41:24;7.30;99.90
2729;DHT22;1372;47.956;7.830;2023-12-20T09:43:54;7.30;99.90
2729;DHT22;1372;47.956;7.830;2023-12-20T09:46:27;7.40;99.90
2729;DHT22;1372;47.956;7.830;2023-12-20T09:48:59;7.40;99.90
2729;DHT22;1372;47.956;7.830;2023-12-20T09:51:30;7.40;99.90
2729;DHT22;1372;47.956;7.830;2023-12-20T09:54:00;7.40;99.90
2729;DHT22;1372;47.956;7.830;2023-12-20T09:56:32;7.40;99.90
2729;DHT22;1372;47.956;7.830;2023-12-20T09:59:01;7.50;99.90
2729;DHT22;1372;47.956;7.830;2023-12-20T10:01:31;7.50;99.90
2729;DHT22;1372;47.956;7.830;2023-12-20T10:04:00;7.50;99.90
2729;DHT22;1372;47.956;7.830;2023-12-20T10:06:36;7.50;99.90
2729;DHT22;1372;47.956;7.830;2023-12-20T10:09:08;7.40;99.90
2729;DHT22;1372;47.956;7.830;2023-12-20T10:11:38;7.50;99.90
2729;DHT22;1372;47.956;7.830;2023-12-20T10:14:07;7.40;99.90
2729;DHT22;1372;47.956;7.830;2023-12-20T10:16:36;7.40;99.90
2729;DHT22;1372;47.956;7.830;2023-12-20T10:19:05;7.40;99.90
2729;DHT22;1372;47.956;7.830;2023-12-20T10:21:41;7.40;99.90
2729;DHT22;1372;47.956;7.830;2023-12-20T10:24:21;7.50;99.90
2729;DHT22;1372;47.956;7.830;2023-12-20T10:27:01;7.60;99.90
2729;DHT22;1372;47.956;7.830;2023-12-20T10:29:33;7.50;99.90
2729;DHT22;1372;47.956;7.830;2023-12-20T10:32:22;7.40;99.90
2729;DHT22;1372;47.956;7.830;2023-12-20T10:34:52;7.20;99.90
2729;DHT22;1372;47.956;7.830;2023-12-20T10:37:35;7.30;99.90
2729;DHT22;1372;47.956;7.830;2023-12-20T10:40:08;7.40;99.90
2729;DHT22;1372;47.956;7.830;2023-12-20T10:42:40;7.30;99.90
2729;DHT22;1372;47.956;7.830;2023-12-20T10:45:15;7.20;99.90
2729;DHT22;1372;47.956;7.830;2023-12-20T10:47:46;7.20;99.90
2729;DHT22;1372;47.956;7.830;2023-12-20T10:50:23;7.30;99.90
2729;DHT22;1372;47.956;7.830;2023-12-20T10:52:54;7.40;99.90
2729;DHT22;1372;47.956;7.830;2023-12-20T10:55:24;7.40;99.90
2729;DHT22;1372;47.956;7.830;2023-12-20T10:57:59;7.30;99.90
2729;DHT22;1372;47.956;7.830;2023-12-20T11:00:29;7.30;99.90
2729;DHT22;1372;47.956;7.830;2023-12-20T11:03:00;7.20;99.90
2729;DHT22;1372;47.956;7.830;2023-12-20T11:05:38;7.20;99.90
2729;DHT22;1372;47.956;7.830;2023-12-20T11:08:19;7.20;99.90
2729;DHT22;1372;47.956;7.830;2023-12-20T11:10:56;7.20;99.90
2729;DHT22;1372;47.956;7.830;2023-12-20T11:13:44;7.10;99.90
2729;DHT22;1372;47.956;7.830;2023-12-20T11:16:22;7.10;99.90
2729;DHT22;1372;47.956;7.830;2023-12-20T11:18:56;7.10;99.90
2729;DHT22;1372;47.956;7.830;2023-12-20T11:21:32;7.00;99.90
2729;DHT22;1372;47.956;7.830;2023-12-20T11:24:04;7.00;99.90
2729;DHT22;1372;47.956;7.830;2023-12-20T11:26:35;6.90;99.90
2729;DHT22;1372;47.956;7.830;2023-12-20T11:29:29;6.80;99.90
2729;DHT22;1372;47.956;7.830;2023-12-20T11:32:03;6.90;99.90
2729;DHT22;1372;47.956;7.830;2023-12-20T11:34:36;6.90;99.90
2729;DHT22;1372;47.956;7.830;2023-12-20T11:37:09;6.80;99.90
2729;DHT22;1372;47.956;7.830;2023-12-20T11:39:44;6.80;99.90
2729;DHT22;1372;47.956;7.830;2023-12-20T11:42:15;7.00;99.90
2729;DHT22;1372;47.956;7.830;2023-12-20T11:44:44;7.10;99.90
2729;DHT22;1372;47.956;7.830;2023-12-20T11:47:15;7.10;99.90
2729;DHT22;1372;47.956;7.830;2023-12-20T11:49:47;7.10;99.90
2729;DHT22;1372;47.956;7.830;2023-12-20T11:52:16;7.10;99.90
2729;DHT22;1372;47.956;7.830;2023-12-20T11:54:47;7.20;99.90
2729;DHT22;1372;47.956;7.830;2023-12-20T11:57:16;7.20;99.90
2729;DHT22;1372;47.956;7.830;2023-12-20T11:59:44;7.40;99.90
2729;DHT22;1372;47.956;7.830;2023-12-20T12:02:13;7.20;99.90
2729;DHT22;1372;47.956;7.830;2023-12-20T12:04:42;7.20;99.90
2729;DHT22;1372;47.956;7.830;2023-12-20T12:07:11;7.30;99.90
2729;DHT22;1372;47.956;7.830;2023-12-20T12:09:40;7.30;99.90
2729;DHT22;1372;47.956;7.830;2023-12-20T12:12:12;7.30;99.90
2729;DHT22;1372;47.956;7.830;2023-12-20T12:14:41;7.40;99.90
2729;DHT22;1372;47.956;7.830;2023-12-20T12:17:10;7.30;99.90
2729;DHT22;1372;47.956;7.830;2023-12-20T12:19:40;7.30;99.90
2729;DHT22;1372;47.956;7.830;2023-12-20T12:22:10;7.30;99.90
2729;DHT22;1372;47.956;7.830;2023-12-20T12:24:43;7.40;99.90
2729;DHT22;1372;47.956;7.830;2023-12-20T12:27:14;7.50;99.90
2729;DHT22;1372;47.956;7.830;2023-12-20T12:30:01;7.50;99.90
2729;DHT22;1372;47.956;7.830;2023-12-20T12:32:31;7.70;99.90
2729;DHT22;1372;47.956;7.830;2023-12-20T12:35:00;7.80;99.90
2729;DHT22;1372;47.956;7.830;2023-12-20T12:37:33;7.70;99.90
2729;DHT22;1372;47.956;7.830;2023-12-20T12:40:10;7.70;99.90
2729;DHT22;1372;47.956;7.830;2023-12-20T12:42:42;7.70;99.90
2729;DHT22;1372;47.956;7.830;2023-12-20T12:45:16;7.80;99.90
2729;DHT22;1372;47.956;7.830;2023-12-20T12:47:46;7.90;99.90
2729;DHT22;1372;47.956;7.830;2023-12-20T12:50:15;8.00;99.90
2729;DHT22;1372;47.956;7.830;2023-12-20T12:52:49;8.00;99.90
2729;DHT22;1372;47.956;7.830;2023-12-20T12:55:21;8.10;99.90
2729;DHT22;1372;47.956;7.830;2023-12-20T12:57:52;8.10;99.90
2729;DHT22;1372;47.956;7.830;2023-12-20T13:00:27;8.20;99.90
2729;DHT22;1372;47.956;7.830;2023-12-20T13:02:59;8.20;99.90
2729;DHT22;1372;47.956;7.830;2023-12-20T13:05:28;8.20;99.90
2729;DHT22;1372;47.956;7.830;2023-12-20T13:08:02;8.00;99.90
2729;DHT22;1372;47.956;7.830;2023-12-20T13:10:31;8.00;99.90
2729;DHT22;1372;47.956;7.830;2023-12-20T13:13:02;7.90;99.90
2729;DHT22;1372;47.956;7.830;2023-12-20T13:15:31;8.00;99.90
2729;DHT22;1372;47.956;7.830;2023-12-20T13:18:00;8.00;99.90
2729;DHT22;1372;47.956;7.830;2023-12-20T13:20:29;8.10;99.90
2729;DHT22;1372;47.956;7.830;2023-12-20T13:23:00;8.20;99.90
2729;DHT22;1372;47.956;7.830;2023-12-20T13:25:33;8.00;99.90
2729;DHT22;1372;47.956;7.830;2023-12-20T13:28:12;8.00;99.90
2729;DHT22;1372;47.956;7.830;2023-12-20T13:30:41;7.90;99.90
2729;DHT22;1372;47.956;7.830;2023-12-20T13:33:11;7.90;99.90
2729;DHT22;1372;47.956;7.830;2023-12-20T13:35:48;8.00;99.90
2729;DHT22;1372;47.956;7.830;2023-12-20T13:38:22;8.00;99.90
2729;DHT22;1372;47.956;7.830;2023-12-20T13:40:54;7.90;99.90
2729;DHT22;1372;47.956;7.830;2023-12-20T13:43:27;7.90;99.90
2729;DHT22;1372;47.956;7.830;2023-12-20T13:45:56;7.90;99.90
2729;DHT22;1372;47.956;7.830;2023-12-20T13:48:24;7.70;99.90
2729;DHT22;1372;47.956;7.830;2023-12-20T13:50:54;7.70;99.90
2729;DHT22;1372;47.956;7.830;2023-12-20T13:53:27;7.60;99.90
2729;DHT22;1372;47.956;7.830;2023-12-20T13:55:56;7.70;99.90
2729;DHT22;1372;47.956;7.830;2023-12-20T13:58:29;7.70;99.90
2729;DHT22;1372;47.956;7.830;2023-12-20T14:01:00;7.70;99.90
2729;DHT22;1372;47.956;7.830;2023-12-20T14:03:30;7.70;99.90
2729;DHT22;1372;47.956;7.830;2023-12-20T14:05:59;7.70;99.90
2729;DHT22;1372;47.956;7.830;2023-12-20T14:08:30;7.70;99.90
2729;DHT22;1372;47.956;7.830;2023-12-20T14:10:59;7.70;99.90
2729;DHT22;1372;47.956;7.830;2023-12-20T14:13:31;7.70;99.90
2729;DHT22;1372;47.956;7.830;2023-12-20T14:16:00;7.70;99.90
2729;DHT22;1372;47.956;7.830;2023-12-20T14:18:31;7.90;99.90
2729;DHT22;1372;47.956;7.830;2023-12-20T14:21:00;7.90;99.90
2729;DHT22;1372;47.956;7.830;2023-12-20T14:23:29;7.80;99.90
2729;DHT22;1372;47.956;7.830;2023-12-20T14:25:59;7.80;99.90
2729;DHT22;1372;47.956;7.830;2023-12-20T14:28:30;7.70;99.90
2729;DHT22;1372;47.956;7.830;2023-12-20T14:31:02;7.70;99.90
2729;DHT22;1372;47.956;7.830;2023-12-20T14:33:34;7.90;99.90
2729;DHT22;1372;47.956;7.830;2023-12-20T14:36:05;7.80;99.90
2729;DHT22;1372;47.956;7.830;2023-12-20T14:38:34;7.70;99.90
2729;DHT22;1372;47.956;7.830;2023-12-20T14:41:06;7.60;99.90
2729;DHT22;1372;47.956;7.830;2023-12-20T14:43:37;7.70;99.90
2729;DHT22;1372;47.956;7.830;2023-12-20T14:46:06;7.70;99.90
2729;DHT22;1372;47.956;7.830;2023-12-20T14:48:38;7.70;99.90
2729;DHT22;1372;47.956;7.830;2023-12-20T14:51:07;7.70;99.90
2729;DHT22;1372;47.956;7.830;2023-12-20T14:53:37;7.70;99.90
2729;DHT22;1372;47.956;7.830;2023-12-20T14:56:06;7.60;99.90
2729;DHT22;1372;47.956;7.830;2023-12-20T14:58:37;7.60;99.90
2729;DHT22;1372;47.956;7.830;2023-12-20T15:01:05;7.60;99.90
2729;DHT22;1372;47.956;7.830;2023-12-20T15:03:36;7.50;99.90
2729;DHT22;1372;47.956;7.830;2023-12-20T15:06:07;7.50;99.90
2729;DHT22;1372;47.956;7.830;2023-12-20T15:08:38;7.50;99.90
2729;DHT22;1372;47.956;7.830;2023-12-20T15:11:12;7.50;99.90
2729;DHT22;1372;47.956;7.830;2023-12-20T15:13:42;7.50;99.90
2729;DHT22;1372;47.956;7.830;2023-12-20T15:16:12;7.40;99.90
2729;DHT22;1372;47.956;7.830;2023-12-20T15:18:43;7.40;99.90
2729;DHT22;1372;47.956;7.830;2023-12-20T15:21:12;7.30;99.90
2729;DHT22;1372;47.956;7.830;2023-12-20T15:23:46;7.30;99.90
2729;DHT22;1372;47.956;7.830;2023-12-20T15:26:20;7.20;99.90
2729;DHT22;1372;47.956;7.830;2023-12-20T15:28:50;7.20;99.90
2729;DHT22;1372;47.956;7.830;2023-12-20T15:31:19;7.10;99.90
2729;DHT22;1372;47.956;7.830;2023-12-20T15:33:53;7.10;99.90
2729;DHT22;1372;47.956;7.830;2023-12-20T15:36:22;7.10;99.90
2729;DHT22;1372;47.956;7.830;2023-12-20T15:38:51;7.00;99.90
2729;DHT22;1372;47.956;7.830;2023-12-20T15:41:22;7.00;99.90
2729;DHT22;1372;47.956;7.830;2023-12-20T15:43:53;6.90;99.90
2729;DHT22;1372;47.956;7.830;2023-12-20T15:46:22;7.00;99.90
2729;DHT22;1372;47.956;7.830;2023-12-20T15:48:51;7.00;99.90
2729;DHT22;1372;47.956;7.830;2023-12-20T15:51:21;6.90;99.90
2729;DHT22;1372;47.956;7.830;2023-12-20T15:53:52;6.90;99.90
2729;DHT22;1372;47.956;7.830;2023-12-20T15:56:20;6.80;99.90
2729;DHT22;1372;47.956;7.830;2023-12-20T15:58:49;6.90;99.90
2729;DHT22;1372;47.956;7.830;2023-12-20T16:01:25;7.00;99.90
2729;DHT22;1372;47.956;7.830;2023-12-20T16:03:57;7.00;99.90
2729;DHT22;1372;47.956;7.830;2023-12-20T16:06:26;6.90;99.90
2729;DHT22;1372;47.956;7.830;2023-12-20T16:08:58;6.90;99.90
2729;DHT22;1372;47.956;7.830;2023-12-20T16:11:27;6.90;99.90
2729;DHT22;1372;47.956;7.830;2023-12-20T16:13:59;6.90;99.90
2729;DHT22;1372;47.956;7.830;2023-12-20T16:16:29;6.80;99.90
2729;DHT22;1372;47.956;7.830;2023-12-20T16:19:00;6.80;99.90
2729;DHT22;1372;47.956;7.830;2023-12-20T16:21:30;6.80;99.90
2729;DHT22;1372;47.956;7.830;2023-12-20T16:24:04;6.80;99.90
2729;DHT22;1372;47.956;7.830;2023-12-20T16:26:34;6.70;99.90
2729;DHT22;1372;47.956;7.830;2023-12-20T16:29:05;6.70;99.90
2729;DHT22;1372;47.956;7.830;2023-12-20T16:31:36;6.60;99.90
2729;DHT22;1372;47.956;7.830;2023-12-20T16:34:11;6.60;99.90
2729;DHT22;1372;47.956;7.830;2023-12-20T16:36:57;6.60;99.90
2729;DHT22;1372;47.956;7.830;2023-12-20T16:39:25;6.50;99.90
2729;DHT22;1372;47.956;7.830;2023-12-20T16:41:54;6.50;99.90